createdAt,value
2023-02-22T00:00:34.008Z,46.7
2023-02-22T00:01:47.587Z,46.7
2023-02-22T00:03:00.542Z,46.7
2023-02-22T00:04:04.370Z,46.7
2023-02-22T00:05:17.028Z,46.7
2023-02-22T00:06:30.647Z,46.7
2023-02-22T00:07:33.321Z,46.7
2023-02-22T00:08:46.873Z,46.7
2023-02-22T00:09:59.512Z,46.7
2023-02-22T00:11:12.850Z,46.7
2023-02-22T00:12:15.502Z,46.7
2023-02-22T00:13:28.867Z,46.6
2023-02-22T00:14:41.500Z,46.7
2023-02-22T00:15:45.370Z,46.7
2023-02-22T00:16:58.027Z,46.7
2023-02-22T00:18:11.410Z,46.7
2023-02-22T00:19:14.047Z,46.7
2023-02-22T00:21:55.345Z,46.7
2023-02-22T00:22:48.060Z,46.7
2023-02-22T00:24:01.401Z,46.7
2023-02-22T00:25:04.041Z,46.7
2023-02-22T00:26:17.383Z,46.7
2023-02-22T00:27:29.971Z,46.7
2023-02-22T00:28:43.367Z,46.7
2023-02-22T00:29:46.020Z,46.7
2023-02-22T00:30:59.405Z,46.7
2023-02-22T00:32:12.190Z,46.7
2023-02-22T00:33:15.904Z,46.6
2023-02-22T00:34:28.476Z,46.7
2023-02-22T00:35:41.954Z,46.7
2023-02-22T00:36:44.597Z,46.7
2023-02-22T00:37:57.910Z,46.7
2023-02-22T00:39:10.504Z,46.7
2023-02-22T00:40:23.907Z,46.7
2023-02-22T00:41:26.612Z,46.7
2023-02-22T00:42:39.888Z,46.7
2023-02-22T00:43:52.496Z,46.7
2023-02-22T00:45:15.918Z,46.7
2023-02-22T00:46:08.715Z,46.7
2023-02-22T00:47:22.482Z,46.7
2023-02-22T00:48:25.127Z,46.7
2023-02-22T00:49:38.425Z,46.7
2023-02-22T00:50:51.030Z,46.7
2023-02-22T00:52:04.922Z,46.7
2023-02-22T00:53:07.612Z,46.6
2023-02-22T00:54:20.917Z,46.6
2023-02-22T00:55:33.529Z,46.7
2023-02-22T00:56:37.398Z,46.7
2023-02-22T00:57:50.051Z,46.7
2023-02-22T00:59:03.417Z,46.7
2023-02-22T01:00:06.081Z,46.7
2023-02-22T01:01:19.639Z,46.7
2023-02-22T01:02:32.397Z,46.7
2023-02-22T01:03:45.909Z,46.7
2023-02-22T01:04:49.756Z,46.7
2023-02-22T01:06:03.413Z,46.7
2023-02-22T01:07:16.040Z,46.6
2023-02-22T01:08:19.447Z,46.7
2023-02-22T01:09:32.116Z,46.7
2023-02-22T01:10:45.422Z,46.7
2023-02-22T01:11:48.072Z,46.7
2023-02-22T01:13:01.432Z,46.7
2023-02-22T01:14:14.049Z,46.7
2023-02-22T01:15:27.409Z,46.7
2023-02-22T01:16:30.133Z,46.7
2023-02-22T01:17:43.425Z,46.7
2023-02-22T01:18:56.058Z,46.7
2023-02-22T01:19:59.420Z,46.7
2023-02-22T01:21:12.061Z,46.7
2023-02-22T01:22:25.429Z,46.8
2023-02-22T01:23:38.012Z,46.7
2023-02-22T01:24:41.450Z,46.7
2023-02-22T01:25:54.040Z,46.7
2023-02-22T01:27:07.421Z,46.7
2023-02-22T01:28:10.091Z,46.7
2023-02-22T01:29:23.407Z,46.7
2023-02-22T01:30:36.145Z,46.7
2023-02-22T01:31:49.938Z,46.8
2023-02-22T01:32:52.701Z,46.7
2023-02-22T01:34:05.895Z,46.7
2023-02-22T01:35:18.503Z,46.7
2023-02-22T01:36:21.932Z,46.7
2023-02-22T01:37:34.566Z,46.7
2023-02-22T01:38:47.894Z,46.7
2023-02-22T01:39:50.575Z,46.7
2023-02-22T01:41:03.912Z,46.7
2023-02-22T01:42:16.540Z,46.7
2023-02-22T01:43:29.945Z,46.7
2023-02-22T01:44:32.631Z,46.7
2023-02-22T01:45:45.914Z,46.7
2023-02-22T01:46:58.553Z,46.7
2023-02-22T01:48:11.924Z,46.7
2023-02-22T01:49:14.635Z,46.7
2023-02-22T01:50:28.442Z,46.7
2023-02-22T01:51:41.064Z,46.7
2023-02-22T01:52:44.403Z,46.8
2023-02-22T01:53:57.016Z,46.7
2023-02-22T01:55:10.400Z,46.7
2023-02-22T01:56:13.145Z,46.7
2023-02-22T01:57:26.422Z,46.7
2023-02-22T01:58:39.028Z,46.7
2023-02-22T01:59:53.411Z,46.7
2023-02-22T02:00:56.076Z,46.7
2023-02-22T02:02:09.933Z,46.8
2023-02-22T02:03:22.531Z,46.7
2023-02-22T02:04:25.962Z,46.7
2023-02-22T02:05:38.638Z,46.7
2023-02-22T02:06:51.890Z,46.7
2023-02-22T02:07:54.569Z,46.7
2023-02-22T02:09:07.928Z,46.7
2023-02-22T02:10:20.543Z,46.7
2023-02-22T02:11:33.896Z,46.7
2023-02-22T02:12:36.603Z,46.7
2023-02-22T02:13:49.925Z,46.7
2023-02-22T02:15:02.616Z,46.7
2023-02-22T02:16:05.954Z,46.7
2023-02-22T02:17:18.579Z,46.7
2023-02-22T02:18:31.915Z,46.8
2023-02-22T02:19:34.588Z,46.7
2023-02-22T02:20:47.914Z,46.8
2023-02-22T02:22:00.541Z,46.8
2023-02-22T02:23:13.946Z,46.7
2023-02-22T02:24:16.700Z,46.7
2023-02-22T02:25:29.994Z,46.7
2023-02-22T02:26:42.627Z,46.7
2023-02-22T02:27:45.919Z,46.7
2023-02-22T02:28:58.517Z,46.7
2023-02-22T02:30:12.158Z,46.7
2023-02-22T02:31:15.370Z,46.7
2023-02-22T02:32:29.586Z,46.7
2023-02-22T02:33:42.303Z,46.7
2023-02-22T02:34:55.924Z,46.7
2023-02-22T02:35:58.746Z,46.8
2023-02-22T02:37:12.450Z,46.7
2023-02-22T02:38:25.113Z,46.7
2023-02-22T02:39:28.395Z,46.7
2023-02-22T02:41:00.851Z,46.7
2023-02-22T02:41:54.439Z,46.8
2023-02-22T02:42:57.313Z,46.7
2023-02-22T02:44:10.909Z,46.7
2023-02-22T02:45:23.525Z,46.7
2023-02-22T02:46:36.940Z,46.6
2023-02-22T02:47:39.599Z,46.7
2023-02-22T02:48:52.943Z,46.6
2023-02-22T02:50:05.570Z,46.6
2023-02-22T02:51:08.907Z,46.7
2023-02-22T02:52:21.543Z,46.6
2023-02-22T02:53:34.923Z,46.7
2023-02-22T02:54:37.623Z,46.7
2023-02-22T02:55:50.951Z,46.6
2023-02-22T02:57:03.604Z,46.7
2023-02-22T02:58:16.938Z,46.7
2023-02-22T02:59:19.607Z,46.7
2023-02-22T03:00:32.939Z,46.7
2023-02-22T03:01:45.582Z,46.7
2023-02-22T03:02:48.961Z,46.7
2023-02-22T03:04:01.639Z,46.7
2023-02-22T03:05:14.933Z,46.7
2023-02-22T03:06:27.560Z,46.7
2023-02-22T03:07:31.461Z,46.7
2023-02-22T03:08:44.171Z,46.7
2023-02-22T03:09:57.434Z,46.7
2023-02-22T03:11:00.129Z,46.7
2023-02-22T03:12:13.423Z,46.7
2023-02-22T03:13:26.056Z,46.7
2023-02-22T03:14:29.447Z,46.7
2023-02-22T03:15:42.103Z,46.7
2023-02-22T03:16:55.445Z,46.7
2023-02-22T03:18:08.098Z,46.7
2023-02-22T03:19:11.432Z,46.8
2023-02-22T03:20:24.073Z,46.7
2023-02-22T03:21:37.434Z,46.8
2023-02-22T03:22:40.107Z,46.7
2023-02-22T03:23:53.458Z,46.7
2023-02-22T03:25:06.082Z,46.7
2023-02-22T03:26:19.426Z,46.7
2023-02-22T03:27:22.225Z,46.8
2023-02-22T03:28:35.455Z,46.8
2023-02-22T03:29:48.084Z,46.7
2023-02-22T03:30:51.466Z,46.7
2023-02-22T03:32:04.126Z,46.8
2023-02-22T03:33:17.420Z,46.8
2023-02-22T03:34:30.050Z,46.7
2023-02-22T03:35:33.434Z,46.7
2023-02-22T03:36:46.061Z,46.8
2023-02-22T03:37:59.957Z,46.7
2023-02-22T03:39:02.642Z,46.7
2023-02-22T03:40:15.965Z,46.7
2023-02-22T03:41:28.579Z,46.8
2023-02-22T03:42:31.962Z,46.8
2023-02-22T03:43:44.623Z,46.8
2023-02-22T03:44:57.986Z,46.7
2023-02-22T03:46:00.696Z,46.8
2023-02-22T03:47:14.445Z,46.8
2023-02-22T03:48:27.248Z,46.8
2023-02-22T03:49:30.982Z,46.7
2023-02-22T03:50:43.630Z,46.8
2023-02-22T03:51:56.972Z,46.7
2023-02-22T03:53:09.654Z,46.8
2023-02-22T03:54:12.964Z,46.8
2023-02-22T03:55:25.606Z,46.8
2023-02-22T03:56:38.946Z,46.8
2023-02-22T03:57:41.661Z,46.8
2023-02-22T03:58:54.990Z,46.8
2023-02-22T04:00:07.659Z,46.8
2023-02-22T04:01:20.958Z,46.8
2023-02-22T04:02:23.805Z,46.8
2023-02-22T04:03:37.470Z,46.8
2023-02-22T04:04:50.166Z,46.8
2023-02-22T04:05:53.984Z,46.8
2023-02-22T04:07:06.623Z,46.8
2023-02-22T04:08:19.956Z,46.8
2023-02-22T04:09:22.666Z,46.8
2023-02-22T04:10:35.972Z,46.8
2023-02-22T04:11:48.638Z,46.8
2023-02-22T04:13:02.001Z,46.8
2023-02-22T04:14:04.702Z,46.8
2023-02-22T04:15:17.972Z,46.8
2023-02-22T04:16:30.614Z,46.8
2023-02-22T04:17:33.951Z,46.8
2023-02-22T04:18:46.601Z,46.8
2023-02-22T04:19:59.963Z,46.8
2023-02-22T04:21:02.662Z,46.8
2023-02-22T04:22:16.492Z,46.8
2023-02-22T04:23:28.900Z,46.8
2023-02-22T04:24:31.987Z,46.8
2023-02-22T04:25:44.444Z,46.8
2023-02-22T04:26:57.451Z,46.9
2023-02-22T04:28:09.865Z,46.8
2023-02-22T04:29:12.957Z,46.8
2023-02-22T04:30:25.419Z,46.8
2023-02-22T04:31:38.536Z,46.8
2023-02-22T04:32:41.195Z,46.8
2023-02-22T04:33:54.465Z,46.8
2023-02-22T04:35:07.006Z,46.8
2023-02-22T04:36:20.445Z,46.8
2023-02-22T04:37:23.155Z,46.8
2023-02-22T04:38:36.441Z,46.8
2023-02-22T04:39:49.204Z,46.8
2023-02-22T04:41:12.464Z,46.7
2023-02-22T04:42:05.243Z,46.8
2023-02-22T04:43:18.471Z,46.8
2023-02-22T04:44:31.108Z,46.8
2023-02-22T04:45:34.477Z,46.8
2023-02-22T04:46:56.933Z,46.8
2023-02-22T04:48:00.472Z,46.7
2023-02-22T04:49:03.185Z,46.7
2023-02-22T04:50:16.477Z,46.8
2023-02-22T04:51:29.094Z,46.7
2023-02-22T04:52:42.475Z,46.7
2023-02-22T04:53:45.142Z,46.7
2023-02-22T04:54:58.978Z,46.7
2023-02-22T04:56:11.630Z,46.7
2023-02-22T04:57:14.958Z,46.7
2023-02-22T04:58:27.602Z,46.7
2023-02-22T04:59:41.000Z,46.7
2023-02-22T05:00:43.763Z,46.7
2023-02-22T05:01:57.065Z,46.7
2023-02-22T05:03:09.690Z,46.7
2023-02-22T05:04:23.357Z,46.7
2023-02-22T05:05:26.155Z,46.7
2023-02-22T05:06:39.502Z,46.7
2023-02-22T05:07:52.132Z,46.7
2023-02-22T05:08:55.508Z,46.7
2023-02-22T05:10:08.157Z,46.8
2023-02-22T05:11:21.955Z,46.8
2023-02-22T05:12:24.669Z,46.8
2023-02-22T05:13:37.973Z,46.8
2023-02-22T05:14:50.607Z,46.9
2023-02-22T05:15:54.555Z,46.9
2023-02-22T05:17:07.281Z,47.0
2023-02-22T05:18:20.464Z,47.0
2023-02-22T05:19:33.082Z,47.0
2023-02-22T05:20:36.494Z,47.0
2023-02-22T05:21:49.146Z,47.0
2023-02-22T05:23:02.501Z,47.1
2023-02-22T05:24:05.189Z,47.1
2023-02-22T05:25:18.477Z,47.1
2023-02-22T05:26:31.120Z,47.1
2023-02-22T05:27:44.468Z,47.1
2023-02-22T05:28:47.150Z,47.1
2023-02-22T05:30:00.514Z,47.1
2023-02-22T05:31:13.198Z,47.2
2023-02-22T05:32:17.013Z,47.2
2023-02-22T05:33:29.721Z,47.2
2023-02-22T05:34:42.971Z,47.2
2023-02-22T05:35:45.645Z,47.3
2023-02-22T05:36:58.965Z,47.3
2023-02-22T05:38:11.617Z,47.3
2023-02-22T05:39:24.977Z,47.2
2023-02-22T05:40:27.723Z,47.3
2023-02-22T05:41:40.980Z,47.3
2023-02-22T05:42:53.724Z,47.3
2023-02-22T05:43:57.496Z,47.3
2023-02-22T05:45:10.147Z,47.3
2023-02-22T05:46:24.524Z,47.3
2023-02-22T05:47:27.334Z,47.3
2023-02-22T05:48:40.969Z,47.3
2023-02-22T05:49:53.597Z,47.3
2023-02-22T05:50:56.986Z,47.3
2023-02-22T05:52:09.643Z,47.3
2023-02-22T05:53:22.995Z,47.3
2023-02-22T05:54:25.709Z,47.4
2023-02-22T05:55:39.010Z,47.4
2023-02-22T05:56:51.645Z,47.3
2023-02-22T05:58:04.996Z,47.3
2023-02-22T05:59:07.933Z,47.5
2023-02-22T06:00:21.772Z,47.6
2023-02-22T06:01:34.364Z,47.6
2023-02-22T06:02:37.999Z,47.5
2023-02-22T06:03:50.536Z,47.4
2023-02-22T06:05:03.995Z,47.2
2023-02-22T06:06:06.555Z,46.4
2023-02-22T06:07:20.056Z,44.5
2023-02-22T06:08:32.568Z,45.7
2023-02-22T06:09:45.983Z,45.2
2023-02-22T06:10:48.478Z,44.2
2023-02-22T06:12:01.478Z,43.2
2023-02-22T06:13:13.908Z,42.3
2023-02-22T06:14:16.978Z,40.7
2023-02-22T06:15:26.161Z,40.8
2023-02-22T06:16:39.493Z,40.2
2023-02-22T06:17:51.913Z,39.6
2023-02-22T06:19:04.982Z,38.8
2023-02-22T06:20:07.467Z,39.2
2023-02-22T06:21:20.526Z,38.5
2023-02-22T06:22:32.962Z,38.5
2023-02-22T06:23:46.004Z,37.9
2023-02-22T06:24:48.511Z,37.8
2023-02-22T06:26:01.994Z,37.7
2023-02-22T06:27:14.413Z,37.4
2023-02-22T06:28:17.503Z,37.5
2023-02-22T06:29:29.937Z,37.3
2023-02-22T06:30:43.156Z,37.6
2023-02-22T06:31:55.857Z,37.7
2023-02-22T06:32:59.490Z,37.9
2023-02-22T06:34:12.042Z,38.0
2023-02-22T06:35:25.483Z,38.1
2023-02-22T06:36:27.991Z,38.1
2023-02-22T06:37:41.502Z,38.1
2023-02-22T06:38:53.964Z,38.0
2023-02-22T06:40:00.720Z,37.9
2023-02-22T06:41:15.617Z,37.9
2023-02-22T06:42:19.045Z,37.7
2023-02-22T06:43:31.575Z,37.6
2023-02-22T06:44:54.472Z,37.6
2023-02-22T06:45:47.094Z,37.6
2023-02-22T06:47:00.507Z,37.5
2023-02-22T06:48:12.881Z,37.4
2023-02-22T06:49:25.987Z,37.3
2023-02-22T06:50:28.493Z,37.2
2023-02-22T06:51:41.487Z,37.1
2023-02-22T06:52:53.888Z,37.1
2023-02-22T06:53:57.003Z,36.9
2023-02-22T06:55:09.428Z,36.9
2023-02-22T06:56:22.476Z,36.8
2023-02-22T06:57:34.876Z,36.8
2023-02-22T06:58:37.995Z,36.8
2023-02-22T06:59:50.224Z,36.7
2023-02-22T07:01:03.028Z,36.7
2023-02-22T07:02:05.511Z,36.6
2023-02-22T07:03:18.555Z,36.6
2023-02-22T07:04:31.024Z,36.5
2023-02-22T07:05:44.023Z,36.6
2023-02-22T07:06:46.485Z,36.5
2023-02-22T07:07:59.535Z,36.4
2023-02-22T07:09:11.920Z,36.6
2023-02-22T07:10:35.020Z,36.7
2023-02-22T07:11:27.581Z,36.7
2023-02-22T07:12:40.490Z,36.8
2023-02-22T07:13:52.855Z,36.8
2023-02-22T07:14:56.008Z,36.9
2023-02-22T07:16:08.384Z,36.9
2023-02-22T07:17:22.500Z,36.8
2023-02-22T07:18:24.938Z,36.8
2023-02-22T07:19:37.998Z,36.7
2023-02-22T07:20:50.358Z,36.7
2023-02-22T07:22:03.572Z,36.7
2023-02-22T07:23:06.032Z,36.6
2023-02-22T07:24:18.999Z,36.6
2023-02-22T07:25:31.361Z,36.6
2023-02-22T07:26:44.523Z,36.5
2023-02-22T07:27:46.980Z,36.5
2023-02-22T07:29:00.042Z,36.5
2023-02-22T07:30:12.431Z,36.5
2023-02-22T07:31:15.785Z,36.4
2023-02-22T07:32:28.403Z,36.4
2023-02-22T07:33:41.528Z,36.4
2023-02-22T07:34:43.966Z,36.2
2023-02-22T07:35:57.006Z,36.3
2023-02-22T07:37:09.338Z,36.2
2023-02-22T07:38:22.492Z,36.2
2023-02-22T07:39:24.940Z,36.2
2023-02-22T07:40:38.040Z,36.2
2023-02-22T07:41:50.384Z,36.1
2023-02-22T07:43:05.321Z,36.1
2023-02-22T07:44:09.059Z,36.0
2023-02-22T07:45:22.029Z,36.0
2023-02-22T07:46:24.570Z,36.0
2023-02-22T07:47:37.528Z,36.0
2023-02-22T07:48:49.929Z,35.9
2023-02-22T07:50:03.032Z,35.9
2023-02-22T07:51:05.471Z,35.9
2023-02-22T07:52:18.510Z,35.8
2023-02-22T07:53:30.829Z,35.8
2023-02-22T07:54:44.030Z,35.8
2023-02-22T07:55:46.459Z,35.8
2023-02-22T07:56:59.538Z,35.7
2023-02-22T07:58:11.871Z,35.7
2023-02-22T07:59:15.049Z,35.9
2023-02-22T08:00:27.455Z,35.8
2023-02-22T08:01:40.526Z,35.9
2023-02-22T08:02:52.844Z,36.0
2023-02-22T08:03:56.094Z,36.1
2023-02-22T08:05:08.570Z,36.3
2023-02-22T08:06:21.533Z,36.3
2023-02-22T08:07:24.069Z,36.4
2023-02-22T08:08:37.073Z,36.5
2023-02-22T08:09:49.409Z,36.6
2023-02-22T08:11:02.538Z,36.6
2023-02-22T08:12:04.959Z,36.7
2023-02-22T08:13:19.045Z,36.7
2023-02-22T08:14:31.440Z,36.7
2023-02-22T08:15:34.540Z,36.8
2023-02-22T08:16:46.884Z,36.9
2023-02-22T08:17:59.999Z,36.9
2023-02-22T08:19:12.303Z,37.0
2023-02-22T08:20:15.547Z,37.0
2023-02-22T08:21:27.875Z,37.0
2023-02-22T08:22:41.021Z,37.0
2023-02-22T08:23:53.321Z,37.0
2023-02-22T08:24:56.563Z,37.1
2023-02-22T08:26:08.876Z,37.1
2023-02-22T08:27:22.027Z,37.2
2023-02-22T08:28:24.433Z,37.2
2023-02-22T08:29:37.821Z,37.2
2023-02-22T08:30:50.167Z,37.2
2023-02-22T08:31:53.735Z,37.3
2023-02-22T08:33:06.229Z,37.3
2023-02-22T08:34:19.559Z,37.4
2023-02-22T08:35:21.936Z,37.4
2023-02-22T08:36:35.026Z,37.4
2023-02-22T08:37:47.289Z,37.4
2023-02-22T08:39:00.603Z,37.4
2023-02-22T08:40:03.073Z,37.4
2023-02-22T08:41:16.466Z,37.5
2023-02-22T08:42:29.126Z,37.6
2023-02-22T08:43:32.594Z,37.6
2023-02-22T08:44:44.903Z,37.6
2023-02-22T08:45:58.115Z,37.6
2023-02-22T08:47:10.420Z,37.6
2023-02-22T08:48:13.527Z,37.6
2023-02-22T08:49:25.802Z,37.7
2023-02-22T08:50:40.057Z,37.7
2023-02-22T08:51:42.427Z,37.7
2023-02-22T08:52:55.538Z,37.7
2023-02-22T08:54:07.892Z,37.7
2023-02-22T08:55:21.034Z,37.7
2023-02-22T08:56:23.406Z,37.7
2023-02-22T08:57:36.836Z,37.8
2023-02-22T08:58:49.118Z,37.7
2023-02-22T08:59:52.529Z,37.8
2023-02-22T09:01:04.802Z,37.8
2023-02-22T09:02:18.074Z,37.8
2023-02-22T09:03:30.443Z,37.8
2023-02-22T09:04:33.534Z,37.8
2023-02-22T09:05:45.859Z,37.8
2023-02-22T09:06:59.026Z,37.8
2023-02-22T09:08:01.399Z,37.8
2023-02-22T09:09:14.537Z,37.8
2023-02-22T09:10:26.825Z,37.9
2023-02-22T09:11:40.032Z,37.9
2023-02-22T09:12:42.412Z,38.0
2023-02-22T09:13:55.610Z,37.9
2023-02-22T09:15:07.880Z,38.1
2023-02-22T09:16:21.074Z,38.2
2023-02-22T09:17:23.453Z,38.4
2023-02-22T09:18:43.961Z,38.5
2023-02-22T09:19:46.787Z,38.5
2023-02-22T09:21:00.042Z,38.6
2023-02-22T09:22:02.464Z,38.7
2023-02-22T09:23:15.588Z,38.8
2023-02-22T09:24:28.050Z,38.9
2023-02-22T09:25:41.219Z,38.8
2023-02-22T09:26:43.763Z,38.9
2023-02-22T09:27:57.063Z,38.9
2023-02-22T09:29:09.311Z,38.9
2023-02-22T09:30:12.571Z,39.0
2023-02-22T09:31:25.066Z,39.1
2023-02-22T09:32:38.230Z,39.1
2023-02-22T09:33:40.761Z,39.1
2023-02-22T09:34:54.077Z,39.0
2023-02-22T09:36:06.412Z,39.0
2023-02-22T09:37:19.581Z,39.0
2023-02-22T09:38:21.938Z,39.1
2023-02-22T09:39:35.152Z,39.2
2023-02-22T09:40:47.480Z,39.1
2023-02-22T09:41:50.572Z,39.3
2023-02-22T09:43:02.820Z,39.2
2023-02-22T09:44:16.196Z,39.1
2023-02-22T09:45:28.436Z,39.1
2023-02-22T09:46:31.558Z,39.4
2023-02-22T09:47:43.799Z,39.3
2023-02-22T09:48:57.037Z,39.3
2023-02-22T09:49:59.360Z,39.3
2023-02-22T09:51:12.041Z,39.2
2023-02-22T09:52:24.269Z,39.4
2023-02-22T09:53:37.041Z,39.5
2023-02-22T09:54:39.356Z,39.5
2023-02-22T09:55:52.577Z,39.6
2023-02-22T09:57:04.853Z,39.5
2023-02-22T09:58:18.060Z,39.6
2023-02-22T09:59:20.396Z,39.6
2023-02-22T10:00:33.581Z,39.5
2023-02-22T10:01:45.802Z,39.5
2023-02-22T10:02:49.062Z,39.6
2023-02-22T10:04:01.301Z,39.7
2023-02-22T10:05:14.580Z,39.6
2023-02-22T10:06:26.927Z,39.7
2023-02-22T10:07:30.068Z,39.6
2023-02-22T10:08:42.334Z,39.6
2023-02-22T10:09:55.555Z,39.7
2023-02-22T10:10:57.856Z,39.8
2023-02-22T10:12:11.068Z,39.8
2023-02-22T10:13:23.272Z,39.8
2023-02-22T10:14:36.046Z,39.7
2023-02-22T10:15:38.362Z,39.8
2023-02-22T10:16:55.108Z,39.7
2023-02-22T10:17:57.417Z,39.8
2023-02-22T10:19:10.588Z,39.8
2023-02-22T10:20:22.786Z,39.8
2023-02-22T10:21:35.599Z,39.7
2023-02-22T10:22:37.949Z,39.8
2023-02-22T10:23:51.078Z,39.9
2023-02-22T10:25:03.259Z,40.0
2023-02-22T10:26:17.546Z,39.9
2023-02-22T10:27:20.059Z,40.0
2023-02-22T10:28:33.050Z,39.9
2023-02-22T10:29:45.248Z,39.9
2023-02-22T10:30:48.690Z,39.8
2023-02-22T10:32:01.093Z,39.9
2023-02-22T10:33:14.046Z,40.0
2023-02-22T10:34:16.341Z,40.0
2023-02-22T10:35:29.554Z,40.1
2023-02-22T10:36:41.747Z,40.1
2023-02-22T10:37:54.574Z,40.0
2023-02-22T10:38:56.865Z,40.0
2023-02-22T10:40:10.086Z,40.1
2023-02-22T10:41:22.257Z,40.2
2023-02-22T10:42:25.088Z,40.0
2023-02-22T10:43:37.256Z,40.2
2023-02-22T10:44:50.083Z,40.2
2023-02-22T10:46:02.321Z,40.2
2023-02-22T10:47:05.573Z,40.2
2023-02-22T10:48:17.807Z,40.3
2023-02-22T10:49:30.575Z,40.5
2023-02-22T10:50:42.788Z,40.4
2023-02-22T10:51:46.085Z,40.4
2023-02-22T10:52:58.281Z,40.3
2023-02-22T10:54:11.060Z,40.2
2023-02-22T10:55:15.598Z,40.3
2023-02-22T10:56:29.092Z,40.3
2023-02-22T10:57:41.270Z,40.4
2023-02-22T10:58:44.588Z,40.3
2023-02-22T10:59:56.741Z,40.3
2023-02-22T11:01:09.615Z,40.2
2023-02-22T11:02:21.903Z,40.3
2023-02-22T11:03:25.074Z,40.3
2023-02-22T11:04:37.259Z,40.3
2023-02-22T11:05:50.590Z,40.3
2023-02-22T11:06:52.897Z,40.2
2023-02-22T11:08:06.095Z,40.3
2023-02-22T11:09:18.301Z,40.3
2023-02-22T11:10:31.579Z,40.2
2023-02-22T11:11:33.853Z,40.2
2023-02-22T11:12:46.580Z,40.1
2023-02-22T11:13:58.928Z,40.2
2023-02-22T11:15:02.078Z,40.1
2023-02-22T11:16:14.338Z,40.1
2023-02-22T11:17:27.607Z,40.3
2023-02-22T11:18:39.798Z,40.1
2023-02-22T11:19:43.095Z,40.2
2023-02-22T11:20:55.274Z,40.1
2023-02-22T11:22:08.093Z,39.9
2023-02-22T11:23:20.274Z,39.9
2023-02-22T11:24:30.386Z,40.0
2023-02-22T11:25:38.149Z,39.9
2023-02-22T11:26:41.089Z,39.9
2023-02-22T11:27:53.257Z,39.8
2023-02-22T11:29:06.144Z,40.0
2023-02-22T11:30:18.386Z,39.8
2023-02-22T11:31:21.778Z,39.8
2023-02-22T11:32:33.928Z,39.8
2023-02-22T11:33:47.100Z,39.9
2023-02-22T11:36:05.045Z,39.8
2023-02-22T11:37:17.207Z,39.7
2023-02-22T11:38:20.085Z,39.8
2023-02-22T11:39:32.344Z,39.7
2023-02-22T11:40:45.650Z,39.8
2023-02-22T11:41:57.789Z,39.7
2023-02-22T11:43:00.621Z,39.5
2023-02-22T11:44:12.803Z,39.6
2023-02-22T11:45:25.617Z,39.5
2023-02-22T11:46:27.868Z,39.4
2023-02-22T11:47:40.630Z,39.5
2023-02-22T11:48:52.714Z,39.5
2023-02-22T11:50:05.610Z,39.4
2023-02-22T11:51:07.911Z,39.6
2023-02-22T11:52:20.624Z,39.4
2023-02-22T11:53:32.782Z,39.4
2023-02-22T11:54:45.638Z,39.4
2023-02-22T11:55:47.849Z,39.5
2023-02-22T11:57:01.081Z,39.4
2023-02-22T11:58:13.850Z,39.4
2023-02-22T11:59:27.125Z,39.6
2023-02-22T12:00:29.393Z,39.5
2023-02-22T12:01:42.129Z,39.6
2023-02-22T12:02:57.436Z,39.6
2023-02-22T12:04:00.783Z,39.6
2023-02-22T12:05:13.069Z,39.5
2023-02-22T12:06:26.140Z,39.5
2023-02-22T12:07:28.337Z,39.4
2023-02-22T12:08:41.601Z,39.5
2023-02-22T12:09:53.672Z,39.4
2023-02-22T12:10:56.623Z,39.6
2023-02-22T12:12:08.688Z,39.6
2023-02-22T12:13:21.609Z,39.6
2023-02-22T12:14:33.680Z,39.6
2023-02-22T12:15:46.644Z,39.6
2023-02-22T12:16:48.947Z,39.6
2023-02-22T12:18:01.625Z,39.6
2023-02-22T12:19:13.660Z,39.6
2023-02-22T12:20:16.648Z,39.5
2023-02-22T12:21:28.749Z,39.5
2023-02-22T12:22:41.633Z,39.7
2023-02-22T12:23:44.992Z,39.6
2023-02-22T12:25:08.737Z,39.6
2023-02-22T12:26:11.877Z,39.5
2023-02-22T12:27:15.198Z,39.5
2023-02-22T12:28:27.389Z,39.5
2023-02-22T12:29:40.635Z,39.6
2023-02-22T12:30:42.942Z,39.6
2023-02-22T12:31:56.123Z,39.4
2023-02-22T12:33:08.256Z,39.5
2023-02-22T12:34:21.150Z,39.4
2023-02-22T12:35:23.356Z,39.3
2023-02-22T12:36:36.188Z,39.4
2023-02-22T12:37:48.329Z,39.5
2023-02-22T12:39:01.230Z,39.7
2023-02-22T12:40:03.621Z,39.5
2023-02-22T12:41:16.858Z,39.6
2023-02-22T12:42:29.306Z,39.5
2023-02-22T12:43:32.641Z,39.4
2023-02-22T12:44:44.686Z,39.5
2023-02-22T12:45:57.751Z,39.5
2023-02-22T12:47:09.768Z,39.6
2023-02-22T12:48:12.666Z,39.6
2023-02-22T12:49:24.800Z,39.6
2023-02-22T12:50:37.721Z,39.6
2023-02-22T12:51:39.980Z,39.7
2023-02-22T12:52:52.636Z,39.8
2023-02-22T12:54:04.750Z,39.7
2023-02-22T12:55:17.645Z,39.6
2023-02-22T12:56:19.840Z,39.8
2023-02-22T12:57:32.745Z,39.8
2023-02-22T12:58:44.798Z,39.8
2023-02-22T12:59:57.666Z,39.8
2023-02-22T13:00:59.858Z,39.8
2023-02-22T13:02:12.666Z,39.7
2023-02-22T13:03:24.730Z,39.8
2023-02-22T13:04:37.627Z,39.8
2023-02-22T13:05:39.805Z,39.8
2023-02-22T13:06:53.785Z,39.8
2023-02-22T13:08:06.045Z,39.9
2023-02-22T13:09:09.156Z,39.9
2023-02-22T13:10:21.278Z,39.8
2023-02-22T13:11:34.123Z,39.8
2023-02-22T13:12:47.220Z,39.8
2023-02-22T13:13:50.169Z,39.7
2023-02-22T13:15:02.415Z,39.7
2023-02-22T13:16:15.173Z,39.9
2023-02-22T13:17:17.373Z,40.0
2023-02-22T13:18:30.166Z,39.8
2023-02-22T13:19:42.295Z,39.8
2023-02-22T13:20:55.218Z,39.8
2023-02-22T13:21:57.479Z,39.9
2023-02-22T13:23:10.166Z,39.8
2023-02-22T13:24:22.250Z,39.9
2023-02-22T13:25:35.640Z,39.9
2023-02-22T13:26:37.817Z,39.9
2023-02-22T13:29:17.137Z,39.9
2023-02-22T13:30:09.611Z,39.9
2023-02-22T13:31:22.801Z,39.9
2023-02-22T13:32:25.203Z,39.9
2023-02-22T13:33:38.194Z,39.9
2023-02-22T13:34:50.296Z,40.0
2023-02-22T13:36:03.182Z,39.9
2023-02-22T13:37:05.353Z,39.9
2023-02-22T13:38:18.211Z,39.9
2023-02-22T13:39:30.311Z,39.8
2023-02-22T13:40:43.182Z,40.0
2023-02-22T13:41:45.339Z,40.0
2023-02-22T13:42:58.176Z,40.1
2023-02-22T13:44:11.052Z,39.9
2023-02-22T13:45:14.214Z,39.9
2023-02-22T13:46:26.309Z,39.9
2023-02-22T13:47:39.212Z,40.0
2023-02-22T13:48:51.307Z,40.1
2023-02-22T13:49:54.183Z,40.2
2023-02-22T13:51:06.292Z,40.1
2023-02-22T13:52:19.204Z,40.2
2023-02-22T13:53:21.475Z,40.0
2023-02-22T13:54:34.181Z,40.0
2023-02-22T13:55:46.270Z,39.9
2023-02-22T13:56:59.215Z,39.8
2023-02-22T13:58:01.503Z,39.8
2023-02-22T13:59:14.198Z,39.8
2023-02-22T14:00:26.315Z,39.6
2023-02-22T14:01:39.388Z,39.7
2023-02-22T14:02:41.614Z,39.7
2023-02-22T14:04:13.696Z,39.8
2023-02-22T14:05:06.626Z,39.6
2023-02-22T14:06:08.961Z,39.7
2023-02-22T14:07:21.697Z,39.7
2023-02-22T14:08:33.802Z,39.5
2023-02-22T14:09:46.700Z,39.3
2023-02-22T14:10:48.966Z,39.6
2023-02-22T14:12:01.693Z,39.4
2023-02-22T14:13:13.712Z,39.8
2023-02-22T14:14:26.711Z,39.5
2023-02-22T14:15:30.713Z,39.6
2023-02-22T14:16:44.207Z,39.4
2023-02-22T14:17:56.309Z,39.3
2023-02-22T14:18:59.183Z,39.2
2023-02-22T14:20:11.438Z,39.0
2023-02-22T14:21:24.699Z,39.1
2023-02-22T14:22:26.871Z,39.0
2023-02-22T14:23:39.758Z,38.9
2023-02-22T14:24:51.954Z,39.1
2023-02-22T14:26:04.705Z,38.9
2023-02-22T14:27:06.879Z,38.9
2023-02-22T14:28:19.693Z,39.0
2023-02-22T14:29:31.808Z,38.9
2023-02-22T14:30:44.755Z,38.9
2023-02-22T14:31:47.018Z,39.0
2023-02-22T14:34:26.627Z,39.0
2023-02-22T14:35:27.564Z,38.9
2023-02-22T14:36:33.251Z,38.8
2023-02-22T14:37:35.451Z,39.0
2023-02-22T14:38:48.209Z,38.9
2023-02-22T14:40:00.332Z,38.9
2023-02-22T14:41:03.264Z,39.1
2023-02-22T14:42:15.391Z,38.9
2023-02-22T14:43:28.259Z,39.0
2023-02-22T14:44:40.386Z,39.2
2023-02-22T14:45:43.295Z,39.0
2023-02-22T14:46:55.400Z,39.1
2023-02-22T14:48:08.266Z,39.2
2023-02-22T14:49:20.399Z,39.2
2023-02-22T14:50:23.266Z,39.2
2023-02-22T14:51:35.399Z,39.2
2023-02-22T14:52:48.268Z,39.4
2023-02-22T14:53:50.549Z,39.3
2023-02-22T14:55:03.254Z,39.4
2023-02-22T14:56:15.379Z,39.3
2023-02-22T14:57:29.608Z,39.3
2023-02-22T14:58:32.244Z,39.4
2023-02-22T14:59:45.233Z,39.4
2023-02-22T15:00:57.374Z,39.5
2023-02-22T15:02:10.940Z,39.5
2023-02-22T15:03:13.818Z,39.5
2023-02-22T15:04:26.800Z,39.5
2023-02-22T15:05:29.158Z,39.6
2023-02-22T15:06:43.040Z,39.6
2023-02-22T15:07:55.196Z,39.6
2023-02-22T15:09:08.235Z,39.7
2023-02-22T15:10:10.458Z,39.8
2023-02-22T15:11:23.235Z,39.7
2023-02-22T15:12:35.380Z,39.9
2023-02-22T15:13:38.726Z,39.9
2023-02-22T15:14:50.890Z,39.9
2023-02-22T15:16:03.805Z,40.1
2023-02-22T15:17:16.064Z,40.1
2023-02-22T15:18:19.333Z,40.2
2023-02-22T15:19:31.484Z,40.2
2023-02-22T15:20:44.232Z,40.2
2023-02-22T15:21:46.453Z,40.2
2023-02-22T15:22:59.239Z,40.3
2023-02-22T15:24:11.393Z,40.3
2023-02-22T15:25:24.252Z,40.4
2023-02-22T15:26:26.540Z,40.3
2023-02-22T15:27:39.268Z,40.5
2023-02-22T15:28:51.461Z,40.5
2023-02-22T15:30:04.246Z,40.6
2023-02-22T15:31:06.529Z,40.6
2023-02-22T15:32:19.459Z,40.7
2023-02-22T15:33:31.733Z,40.7
2023-02-22T15:34:44.759Z,40.8
2023-02-22T15:35:47.088Z,40.8